sensor_id;sensor_type;location;lat;lon;timestamp;temperature;humidity
26803;DHT22;14378;51.796;5.808;2023-04-09T00:06:00;12.10;99.90
26803;DHT22;14378;51.796;5.808;2023-04-09T00:08:01;12.00;99.90
26803;DHT22;14378;51.796;5.808;2023-04-09T00:10:03;12.10;99.90
26803;DHT22;14378;51.796;5.808;2023-04-09T00:12:08;12.00;99.90
26803;DHT22;14378;51.796;5.808;2023-04-09T00:14:09;12.00;99.90
26803;DHT22;14378;51.796;5.808;2023-04-09T00:16:10;12.00;99.90
26803;DHT22;14378;51.796;5.808;2023-04-09T00:18:12;12.00;99.90
26803;DHT22;14378;51.796;5.808;2023-04-09T00:20:14;12.00;99.90
26803;DHT22;14378;51.796;5.808;2023-04-09T00:22:15;12.00;99.90
26803;DHT22;14378;51.796;5.808;2023-04-09T00:24:19;12.00;99.90
26803;DHT22;14378;51.796;5.808;2023-04-09T00:26:20;12.00;99.90
26803;DHT22;14378;51.796;5.808;2023-04-09T00:28:21;12.00;99.90
26803;DHT22;14378;51.796;5.808;2023-04-09T00:30:22;12.00;99.90
26803;DHT22;14378;51.796;5.808;2023-04-09T00:32:23;11.90;99.90
26803;DHT22;14378;51.796;5.808;2023-04-09T00:34:24;12.00;99.90
26803;DHT22;14378;51.796;5.808;2023-04-09T00:36:26;12.00;99.90
26803;DHT22;14378;51.796;5.808;2023-04-09T00:38:27;12.00;99.90
26803;DHT22;14378;51.796;5.808;2023-04-09T00:40:28;11.90;99.90
26803;DHT22;14378;51.796;5.808;2023-04-09T00:42:35;11.90;99.90
26803;DHT22;14378;51.796;5.808;2023-04-09T00:44:37;11.90;99.90
26803;DHT22;14378;51.796;5.808;2023-04-09T00:46:38;11.90;99.90
26803;DHT22;14378;51.796;5.808;2023-04-09T00:48:40;11.80;99.90
26803;DHT22;14378;51.796;5.808;2023-04-09T00:50:42;11.90;99.90
26803;DHT22;14378;51.796;5.808;2023-04-09T00:52:44;11.80;99.90
26803;DHT22;14378;51.796;5.808;2023-04-09T00:54:45;11.80;99.90
26803;DHT22;14378;51.796;5.808;2023-04-09T00:56:50;11.80;99.90
26803;DHT22;14378;51.796;5.808;2023-04-09T00:58:53;11.90;99.90
26803;DHT22;14378;51.796;5.808;2023-04-09T01:00:53;11.80;99.90
26803;DHT22;14378;51.796;5.808;2023-04-09T01:02:56;11.80;99.90
26803;DHT22;14378;51.796;5.808;2023-04-09T01:04:59;11.80;99.90
26803;DHT22;14378;51.796;5.808;2023-04-09T01:09:32;11.80;99.90
26803;DHT22;14378;51.796;5.808;2023-04-09T01:11:37;11.70;99.90
26803;DHT22;14378;51.796;5.808;2023-04-09T01:16:18;11.70;99.90
26803;DHT22;14378;51.796;5.808;2023-04-09T01:20:42;11.70;99.90
26803;DHT22;14378;51.796;5.808;2023-04-09T01:25:45;11.60;99.90
26803;DHT22;14378;51.796;5.808;2023-04-09T01:28:30;11.60;99.90
26803;DHT22;14378;51.796;5.808;2023-04-09T01:30:33;11.70;99.90
26803;DHT22;14378;51.796;5.808;2023-04-09T01:32:36;11.70;99.90
26803;DHT22;14378;51.796;5.808;2023-04-09T01:34:39;11.70;99.90
26803;DHT22;14378;51.796;5.808;2023-04-09T01:36:42;11.70;99.90
26803;DHT22;14378;51.796;5.808;2023-04-09T01:38:54;11.70;99.90
26803;DHT22;14378;51.796;5.808;2023-04-09T01:40:59;11.70;99.90
26803;DHT22;14378;51.796;5.808;2023-04-09T01:43:02;11.70;99.90
26803;DHT22;14378;51.796;5.808;2023-04-09T01:45:05;11.70;99.90
26803;DHT22;14378;51.796;5.808;2023-04-09T01:47:08;11.70;99.90
26803;DHT22;14378;51.796;5.808;2023-04-09T01:49:10;11.70;99.90
26803;DHT22;14378;51.796;5.808;2023-04-09T01:51:12;11.70;99.90
26803;DHT22;14378;51.796;5.808;2023-04-09T01:53:14;11.70;99.90
26803;DHT22;14378;51.796;5.808;2023-04-09T01:55:15;11.70;99.90
26803;DHT22;14378;51.796;5.808;2023-04-09T01:57:17;11.70;99.90
26803;DHT22;14378;51.796;5.808;2023-04-09T01:59:18;11.70;99.90
26803;DHT22;14378;51.796;5.808;2023-04-09T02:01:31;11.60;99.90
26803;DHT22;14378;51.796;5.808;2023-04-09T02:03:37;11.60;99.90
26803;DHT22;14378;51.796;5.808;2023-04-09T02:05:47;11.60;99.90
26803;DHT22;14378;51.796;5.808;2023-04-09T02:07:55;11.70;99.90
26803;DHT22;14378;51.796;5.808;2023-04-09T02:09:59;11.60;99.90
26803;DHT22;14378;51.796;5.808;2023-04-09T02:12:03;11.60;99.90
26803;DHT22;14378;51.796;5.808;2023-04-09T02:14:06;11.60;99.90
26803;DHT22;14378;51.796;5.808;2023-04-09T02:16:12;11.60;99.90
26803;DHT22;14378;51.796;5.808;2023-04-09T02:18:23;11.60;99.90
26803;DHT22;14378;51.796;5.808;2023-04-09T02:20:25;11.60;99.90
26803;DHT22;14378;51.796;5.808;2023-04-09T02:22:26;11.60;99.90
26803;DHT22;14378;51.796;5.808;2023-04-09T02:24:27;11.60;99.90
26803;DHT22;14378;51.796;5.808;2023-04-09T02:26:28;11.60;99.90
26803;DHT22;14378;51.796;5.808;2023-04-09T02:28:29;11.60;99.90
26803;DHT22;14378;51.796;5.808;2023-04-09T02:30:30;11.60;99.90
26803;DHT22;14378;51.796;5.808;2023-04-09T02:32:31;11.60;99.90
26803;DHT22;14378;51.796;5.808;2023-04-09T02:34:32;11.60;99.90
26803;DHT22;14378;51.796;5.808;2023-04-09T02:36:33;11.60;99.90
26803;DHT22;14378;51.796;5.808;2023-04-09T02:38:34;11.60;99.90
26803;DHT22;14378;51.796;5.808;2023-04-09T02:40:35;11.60;99.90
26803;DHT22;14378;51.796;5.808;2023-04-09T02:42:36;11.60;99.90
26803;DHT22;14378;51.796;5.808;2023-04-09T02:44:37;11.60;99.90
26803;DHT22;14378;51.796;5.808;2023-04-09T02:46:40;11.60;99.90
26803;DHT22;14378;51.796;5.808;2023-04-09T02:48:42;11.60;99.90
26803;DHT22;14378;51.796;5.808;2023-04-09T02:50:42;11.60;99.90
26803;DHT22;14378;51.796;5.808;2023-04-09T02:52:45;11.60;99.90
26803;DHT22;14378;51.796;5.808;2023-04-09T02:54:48;11.60;99.90
26803;DHT22;14378;51.796;5.808;2023-04-09T02:56:52;11.50;99.90
26803;DHT22;14378;51.796;5.808;2023-04-09T02:58:54;11.60;99.90
26803;DHT22;14378;51.796;5.808;2023-04-09T03:00:55;11.50;99.90
26803;DHT22;14378;51.796;5.808;2023-04-09T03:02:56;11.50;99.90
26803;DHT22;14378;51.796;5.808;2023-04-09T03:04:57;11.50;99.90
26803;DHT22;14378;51.796;5.808;2023-04-09T03:06:58;11.50;99.90
26803;DHT22;14378;51.796;5.808;2023-04-09T03:08:59;11.50;99.90
26803;DHT22;14378;51.796;5.808;2023-04-09T03:11:00;11.50;99.90
26803;DHT22;14378;51.796;5.808;2023-04-09T03:13:01;11.50;99.90
26803;DHT22;14378;51.796;5.808;2023-04-09T03:15:02;11.50;99.90
26803;DHT22;14378;51.796;5.808;2023-04-09T03:17:04;11.50;99.90
26803;DHT22;14378;51.796;5.808;2023-04-09T03:19:05;11.50;99.90
26803;DHT22;14378;51.796;5.808;2023-04-09T03:21:08;11.50;99.90
26803;DHT22;14378;51.796;5.808;2023-04-09T03:23:12;11.50;99.90
26803;DHT22;14378;51.796;5.808;2023-04-09T03:25:18;11.50;99.90
26803;DHT22;14378;51.796;5.808;2023-04-09T03:27:21;11.50;99.90
26803;DHT22;14378;51.796;5.808;2023-04-09T03:29:26;11.50;99.90
26803;DHT22;14378;51.796;5.808;2023-04-09T03:31:27;11.50;99.90
26803;DHT22;14378;51.796;5.808;2023-04-09T03:33:47;11.40;99.90
26803;DHT22;14378;51.796;5.808;2023-04-09T03:36:04;11.40;99.90
26803;DHT22;14378;51.796;5.808;2023-04-09T03:38:21;11.40;99.90
26803;DHT22;14378;51.796;5.808;2023-04-09T03:40:22;11.40;99.90
26803;DHT22;14378;51.796;5.808;2023-04-09T03:42:23;11.30;99.90
26803;DHT22;14378;51.796;5.808;2023-04-09T03:44:24;11.30;99.90
26803;DHT22;14378;51.796;5.808;2023-04-09T03:46:42;11.30;99.90
26803;DHT22;14378;51.796;5.808;2023-04-09T03:48:52;11.30;99.90
26803;DHT22;14378;51.796;5.808;2023-04-09T03:50:54;11.30;99.90
26803;DHT22;14378;51.796;5.808;2023-04-09T03:53:04;11.20;99.90
26803;DHT22;14378;51.796;5.808;2023-04-09T03:55:05;11.20;99.90
26803;DHT22;14378;51.796;5.808;2023-04-09T03:57:06;11.20;99.90
26803;DHT22;14378;51.796;5.808;2023-04-09T03:59:11;11.20;99.90
26803;DHT22;14378;51.796;5.808;2023-04-09T04:01:15;11.20;99.90
26803;DHT22;14378;51.796;5.808;2023-04-09T04:03:29;11.20;99.90
26803;DHT22;14378;51.796;5.808;2023-04-09T04:05:43;11.20;99.90
26803;DHT22;14378;51.796;5.808;2023-04-09T04:07:49;11.20;99.90
26803;DHT22;14378;51.796;5.808;2023-04-09T04:09:58;11.10;99.90
26803;DHT22;14378;51.796;5.808;2023-04-09T04:12:00;11.10;99.90
26803;DHT22;14378;51.796;5.808;2023-04-09T04:14:28;11.10;99.90
26803;DHT22;14378;51.796;5.808;2023-04-09T04:16:36;11.10;99.90
26803;DHT22;14378;51.796;5.808;2023-04-09T04:18:39;11.00;99.90
26803;DHT22;14378;51.796;5.808;2023-04-09T04:20:41;11.00;99.90
26803;DHT22;14378;51.796;5.808;2023-04-09T04:22:49;10.90;99.90
26803;DHT22;14378;51.796;5.808;2023-04-09T04:24:51;10.90;99.90
26803;DHT22;14378;51.796;5.808;2023-04-09T04:26:54;10.90;99.90
26803;DHT22;14378;51.796;5.808;2023-04-09T04:29:04;10.80;99.90
26803;DHT22;14378;51.796;5.808;2023-04-09T04:31:20;10.80;99.90
26803;DHT22;14378;51.796;5.808;2023-04-09T04:33:21;10.70;99.90
26803;DHT22;14378;51.796;5.808;2023-04-09T04:35:26;10.60;99.90
26803;DHT22;14378;51.796;5.808;2023-04-09T04:37:31;10.60;99.90
26803;DHT22;14378;51.796;5.808;2023-04-09T04:39:34;10.60;99.90
26803;DHT22;14378;51.796;5.808;2023-04-09T04:41:43;10.50;99.90
26803;DHT22;14378;51.796;5.808;2023-04-09T04:43:49;10.50;99.90
26803;DHT22;14378;51.796;5.808;2023-04-09T04:45:58;10.50;99.90
26803;DHT22;14378;51.796;5.808;2023-04-09T04:48:02;10.40;99.90
26803;DHT22;14378;51.796;5.808;2023-04-09T04:50:05;10.40;99.90
26803;DHT22;14378;51.796;5.808;2023-04-09T04:52:18;10.30;99.90
26803;DHT22;14378;51.796;5.808;2023-04-09T04:54:24;10.30;99.90
26803;DHT22;14378;51.796;5.808;2023-04-09T04:56:29;10.20;99.90
26803;DHT22;14378;51.796;5.808;2023-04-09T04:58:43;10.20;99.90
26803;DHT22;14378;51.796;5.808;2023-04-09T05:00:45;10.10;99.90
26803;DHT22;14378;51.796;5.808;2023-04-09T05:02:50;10.10;99.90
26803;DHT22;14378;51.796;5.808;2023-04-09T05:04:55;10.10;99.90
26803;DHT22;14378;51.796;5.808;2023-04-09T05:07:04;10.00;99.90
26803;DHT22;14378;51.796;5.808;2023-04-09T05:09:06;9.90;99.90
26803;DHT22;14378;51.796;5.808;2023-04-09T05:11:19;9.90;99.90
26803;DHT22;14378;51.796;5.808;2023-04-09T05:13:23;9.90;99.90
26803;DHT22;14378;51.796;5.808;2023-04-09T05:15:26;9.80;99.90
26803;DHT22;14378;51.796;5.808;2023-04-09T05:17:27;9.80;99.90
26803;DHT22;14378;51.796;5.808;2023-04-09T05:19:29;9.70;99.90
26803;DHT22;14378;51.796;5.808;2023-04-09T05:21:34;9.70;99.90
26803;DHT22;14378;51.796;5.808;2023-04-09T05:23:39;9.70;99.90
26803;DHT22;14378;51.796;5.808;2023-04-09T05:25:40;9.60;99.90
26803;DHT22;14378;51.796;5.808;2023-04-09T05:27:47;9.60;99.90
26803;DHT22;14378;51.796;5.808;2023-04-09T05:29:51;9.50;99.90
26803;DHT22;14378;51.796;5.808;2023-04-09T05:31:53;9.50;99.90
26803;DHT22;14378;51.796;5.808;2023-04-09T05:34:03;9.40;99.90
26803;DHT22;14378;51.796;5.808;2023-04-09T05:36:18;9.40;99.90
26803;DHT22;14378;51.796;5.808;2023-04-09T05:38:19;9.40;99.90
26803;DHT22;14378;51.796;5.808;2023-04-09T05:40:30;9.40;99.90
26803;DHT22;14378;51.796;5.808;2023-04-09T05:42:32;9.40;99.90
26803;DHT22;14378;51.796;5.808;2023-04-09T05:44:40;9.40;99.90
26803;DHT22;14378;51.796;5.808;2023-04-09T05:46:53;9.40;99.90
26803;DHT22;14378;51.796;5.808;2023-04-09T05:48:59;9.40;99.90
26803;DHT22;14378;51.796;5.808;2023-04-09T05:51:09;9.40;99.90
26803;DHT22;14378;51.796;5.808;2023-04-09T05:53:11;9.30;99.90
26803;DHT22;14378;51.796;5.808;2023-04-09T05:55:16;9.30;99.90
26803;DHT22;14378;51.796;5.808;2023-04-09T05:57:25;9.30;99.90
26803;DHT22;14378;51.796;5.808;2023-04-09T05:59:32;9.30;99.90
26803;DHT22;14378;51.796;5.808;2023-04-09T06:01:34;9.20;99.90
26803;DHT22;14378;51.796;5.808;2023-04-09T06:03:37;9.20;99.90
26803;DHT22;14378;51.796;5.808;2023-04-09T06:05:40;9.30;99.90
26803;DHT22;14378;51.796;5.808;2023-04-09T06:07:41;9.20;99.90
26803;DHT22;14378;51.796;5.808;2023-04-09T06:09:42;9.20;99.90
26803;DHT22;14378;51.796;5.808;2023-04-09T06:11:43;9.20;99.90
26803;DHT22;14378;51.796;5.808;2023-04-09T06:13:45;9.20;99.90
26803;DHT22;14378;51.796;5.808;2023-04-09T06:15:48;9.30;99.90
26803;DHT22;14378;51.796;5.808;2023-04-09T06:17:50;9.20;99.90
26803;DHT22;14378;51.796;5.808;2023-04-09T06:19:51;9.20;99.90
26803;DHT22;14378;51.796;5.808;2023-04-09T06:21:52;9.20;99.90
26803;DHT22;14378;51.796;5.808;2023-04-09T06:23:53;9.30;99.90
26803;DHT22;14378;51.796;5.808;2023-04-09T06:25:57;9.30;99.90
26803;DHT22;14378;51.796;5.808;2023-04-09T06:27:58;9.30;99.90
26803;DHT22;14378;51.796;5.808;2023-04-09T06:29:59;9.30;99.90
26803;DHT22;14378;51.796;5.808;2023-04-09T06:32:00;9.30;99.90
26803;DHT22;14378;51.796;5.808;2023-04-09T06:34:01;9.30;99.90
26803;DHT22;14378;51.796;5.808;2023-04-09T06:36:03;9.30;99.90
26803;DHT22;14378;51.796;5.808;2023-04-09T06:38:03;9.30;99.90
26803;DHT22;14378;51.796;5.808;2023-04-09T06:40:10;9.30;99.90
26803;DHT22;14378;51.796;5.808;2023-04-09T06:42:11;9.30;99.90
26803;DHT22;14378;51.796;5.808;2023-04-09T06:44:22;9.40;99.90
26803;DHT22;14378;51.796;5.808;2023-04-09T06:46:24;9.40;99.90
26803;DHT22;14378;51.796;5.808;2023-04-09T06:48:25;9.40;99.90
26803;DHT22;14378;51.796;5.808;2023-04-09T06:50:26;9.40;99.90
26803;DHT22;14378;51.796;5.808;2023-04-09T06:52:27;9.40;99.90
26803;DHT22;14378;51.796;5.808;2023-04-09T06:54:28;9.50;99.90
26803;DHT22;14378;51.796;5.808;2023-04-09T06:56:29;9.50;99.90
26803;DHT22;14378;51.796;5.808;2023-04-09T06:58:30;9.50;99.90
26803;DHT22;14378;51.796;5.808;2023-04-09T07:00:31;9.50;99.90
26803;DHT22;14378;51.796;5.808;2023-04-09T07:02:33;9.50;99.90
26803;DHT22;14378;51.796;5.808;2023-04-09T07:04:34;9.60;99.90
26803;DHT22;14378;51.796;5.808;2023-04-09T07:06:35;9.50;99.90
26803;DHT22;14378;51.796;5.808;2023-04-09T07:08:36;9.50;99.90
26803;DHT22;14378;51.796;5.808;2023-04-09T07:10:37;9.60;99.90
26803;DHT22;14378;51.796;5.808;2023-04-09T07:12:38;9.60;99.90
26803;DHT22;14378;51.796;5.808;2023-04-09T07:14:39;9.60;99.90
26803;DHT22;14378;51.796;5.808;2023-04-09T07:16:39;9.60;99.90
26803;DHT22;14378;51.796;5.808;2023-04-09T07:18:40;9.70;99.90
26803;DHT22;14378;51.796;5.808;2023-04-09T07:20:41;9.70;99.90
26803;DHT22;14378;51.796;5.808;2023-04-09T07:22:42;9.70;99.90
26803;DHT22;14378;51.796;5.808;2023-04-09T07:24:43;9.80;99.90
26803;DHT22;14378;51.796;5.808;2023-04-09T07:26:44;9.80;99.90
26803;DHT22;14378;51.796;5.808;2023-04-09T07:28:45;9.80;99.90
26803;DHT22;14378;51.796;5.808;2023-04-09T07:30:46;9.90;99.90
26803;DHT22;14378;51.796;5.808;2023-04-09T07:32:50;9.90;99.90
26803;DHT22;14378;51.796;5.808;2023-04-09T07:34:53;10.00;99.90
26803;DHT22;14378;51.796;5.808;2023-04-09T07:36:57;10.00;99.90
26803;DHT22;14378;51.796;5.808;2023-04-09T07:38:58;10.10;99.90
26803;DHT22;14378;51.796;5.808;2023-04-09T07:40:59;10.10;99.90
26803;DHT22;14378;51.796;5.808;2023-04-09T07:43:01;10.20;99.90
26803;DHT22;14378;51.796;5.808;2023-04-09T07:45:02;10.30;99.90
26803;DHT22;14378;51.796;5.808;2023-04-09T07:47:04;10.30;99.90
26803;DHT22;14378;51.796;5.808;2023-04-09T07:49:05;10.40;99.90
26803;DHT22;14378;51.796;5.808;2023-04-09T07:51:09;10.50;99.90
26803;DHT22;14378;51.796;5.808;2023-04-09T07:53:11;10.50;99.90
26803;DHT22;14378;51.796;5.808;2023-04-09T07:55:12;10.60;99.90
26803;DHT22;14378;51.796;5.808;2023-04-09T07:57:13;10.60;99.90
26803;DHT22;14378;51.796;5.808;2023-04-09T07:59:14;10.70;99.90
26803;DHT22;14378;51.796;5.808;2023-04-09T08:01:18;10.80;99.90
26803;DHT22;14378;51.796;5.808;2023-04-09T08:03:25;10.90;99.90
26803;DHT22;14378;51.796;5.808;2023-04-09T08:05:28;10.90;99.90
26803;DHT22;14378;51.796;5.808;2023-04-09T08:07:28;11.00;99.90
26803;DHT22;14378;51.796;5.808;2023-04-09T08:09:30;11.10;99.90
26803;DHT22;14378;51.796;5.808;2023-04-09T08:11:32;11.10;99.90
26803;DHT22;14378;51.796;5.808;2023-04-09T08:13:33;11.20;99.90
26803;DHT22;14378;51.796;5.808;2023-04-09T08:15:34;11.20;99.90
26803;DHT22;14378;51.796;5.808;2023-04-09T08:17:34;11.20;99.90
26803;DHT22;14378;51.796;5.808;2023-04-09T08:19:37;11.30;99.90
26803;DHT22;14378;51.796;5.808;2023-04-09T08:21:38;11.30;99.90
26803;DHT22;14378;51.796;5.808;2023-04-09T08:23:42;11.30;99.90
26803;DHT22;14378;51.796;5.808;2023-04-09T08:25:43;11.40;99.90
26803;DHT22;14378;51.796;5.808;2023-04-09T08:27:47;11.40;99.90
26803;DHT22;14378;51.796;5.808;2023-04-09T08:29:48;11.50;99.90
26803;DHT22;14378;51.796;5.808;2023-04-09T08:31:52;11.60;99.90
26803;DHT22;14378;51.796;5.808;2023-04-09T08:33:53;11.60;99.90
26803;DHT22;14378;51.796;5.808;2023-04-09T08:35:53;11.60;99.90
26803;DHT22;14378;51.796;5.808;2023-04-09T08:38:00;11.70;99.90
26803;DHT22;14378;51.796;5.808;2023-04-09T08:40:04;11.90;99.90
26803;DHT22;14378;51.796;5.808;2023-04-09T08:42:06;12.00;99.90
26803;DHT22;14378;51.796;5.808;2023-04-09T08:44:09;12.10;99.90
26803;DHT22;14378;51.796;5.808;2023-04-09T08:46:11;12.20;99.90
26803;DHT22;14378;51.796;5.808;2023-04-09T08:48:13;12.40;99.90
26803;DHT22;14378;51.796;5.808;2023-04-09T08:50:14;12.60;99.90
26803;DHT22;14378;51.796;5.808;2023-04-09T08:52:15;12.70;99.90
26803;DHT22;14378;51.796;5.808;2023-04-09T08:54:21;12.90;99.90
26803;DHT22;14378;51.796;5.808;2023-04-09T08:56:26;13.00;99.90
26803;DHT22;14378;51.796;5.808;2023-04-09T08:58:28;13.20;99.90
26803;DHT22;14378;51.796;5.808;2023-04-09T09:00:30;13.30;99.90
26803;DHT22;14378;51.796;5.808;2023-04-09T09:02:32;13.40;99.90
26803;DHT22;14378;51.796;5.808;2023-04-09T09:04:46;13.50;99.90
26803;DHT22;14378;51.796;5.808;2023-04-09T09:07:05;13.70;99.90
26803;DHT22;14378;51.796;5.808;2023-04-09T09:11:07;14.00;99.90
26803;DHT22;14378;51.796;5.808;2023-04-09T09:15:28;14.30;99.90
26803;DHT22;14378;51.796;5.808;2023-04-09T09:17:33;14.50;99.90
26803;DHT22;14378;51.796;5.808;2023-04-09T09:19:34;14.70;99.90
26803;DHT22;14378;51.796;5.808;2023-04-09T09:21:35;14.80;99.90
26803;DHT22;14378;51.796;5.808;2023-04-09T09:23:40;15.00;99.90
26803;DHT22;14378;51.796;5.808;2023-04-09T09:25:43;15.20;99.90
26803;DHT22;14378;51.796;5.808;2023-04-09T09:28:05;15.40;99.90
26803;DHT22;14378;51.796;5.808;2023-04-09T09:30:06;15.60;99.90
26803;DHT22;14378;51.796;5.808;2023-04-09T09:32:12;15.80;99.90
26803;DHT22;14378;51.796;5.808;2023-04-09T09:34:14;15.90;99.90
26803;DHT22;14378;51.796;5.808;2023-04-09T09:36:33;16.10;99.90
26803;DHT22;14378;51.796;5.808;2023-04-09T09:39:04;16.30;99.90
26803;DHT22;14378;51.796;5.808;2023-04-09T09:41:17;16.60;99.90
26803;DHT22;14378;51.796;5.808;2023-04-09T09:43:19;16.80;99.90
26803;DHT22;14378;51.796;5.808;2023-04-09T09:45:20;16.80;99.90
26803;DHT22;14378;51.796;5.808;2023-04-09T09:47:22;16.90;99.90
26803;DHT22;14378;51.796;5.808;2023-04-09T09:49:26;17.00;99.90
26803;DHT22;14378;51.796;5.808;2023-04-09T09:51:27;17.10;99.90
26803;DHT22;14378;51.796;5.808;2023-04-09T09:53:31;17.20;99.90
26803;DHT22;14378;51.796;5.808;2023-04-09T09:55:39;17.30;99.90
26803;DHT22;14378;51.796;5.808;2023-04-09T09:57:43;17.40;99.90
26803;DHT22;14378;51.796;5.808;2023-04-09T09:59:57;17.40;99.90
26803;DHT22;14378;51.796;5.808;2023-04-09T10:02:05;17.50;99.90
26803;DHT22;14378;51.796;5.808;2023-04-09T10:06:17;17.80;99.90
26803;DHT22;14378;51.796;5.808;2023-04-09T10:08:25;18.00;99.90
26803;DHT22;14378;51.796;5.808;2023-04-09T10:10:26;18.00;99.90
26803;DHT22;14378;51.796;5.808;2023-04-09T10:12:27;18.10;99.90
26803;DHT22;14378;51.796;5.808;2023-04-09T10:14:29;18.30;99.90
26803;DHT22;14378;51.796;5.808;2023-04-09T10:16:30;18.50;99.90
26803;DHT22;14378;51.796;5.808;2023-04-09T10:18:33;18.80;99.90
26803;DHT22;14378;51.796;5.808;2023-04-09T10:20:51;18.90;99.60
26803;DHT22;14378;51.796;5.808;2023-04-09T10:23:00;19.10;99.50
26803;DHT22;14378;51.796;5.808;2023-04-09T10:25:04;19.20;97.90
26803;DHT22;14378;51.796;5.808;2023-04-09T10:27:14;19.20;99.20
26803;DHT22;14378;51.796;5.808;2023-04-09T10:29:15;19.30;99.30
26803;DHT22;14378;51.796;5.808;2023-04-09T10:31:19;19.40;98.70
26803;DHT22;14378;51.796;5.808;2023-04-09T10:33:25;19.50;98.20
26803;DHT22;14378;51.796;5.808;2023-04-09T10:35:27;19.60;96.90
26803;DHT22;14378;51.796;5.808;2023-04-09T10:37:29;19.70;98.50
26803;DHT22;14378;51.796;5.808;2023-04-09T10:39:31;19.70;97.80
26803;DHT22;14378;51.796;5.808;2023-04-09T10:41:33;19.80;97.90
26803;DHT22;14378;51.796;5.808;2023-04-09T10:43:35;20.10;97.80
26803;DHT22;14378;51.796;5.808;2023-04-09T10:45:40;20.10;98.00
26803;DHT22;14378;51.796;5.808;2023-04-09T10:47:42;20.20;97.90
26803;DHT22;14378;51.796;5.808;2023-04-09T10:49:43;20.40;96.50
26803;DHT22;14378;51.796;5.808;2023-04-09T10:51:54;20.50;98.00
26803;DHT22;14378;51.796;5.808;2023-04-09T10:54:00;20.60;96.60
26803;DHT22;14378;51.796;5.808;2023-04-09T10:56:13;20.70;96.20
26803;DHT22;14378;51.796;5.808;2023-04-09T10:58:16;20.70;94.80
26803;DHT22;14378;51.796;5.808;2023-04-09T11:00:21;20.80;94.50
26803;DHT22;14378;51.796;5.808;2023-04-09T11:07:05;20.80;96.00
26803;DHT22;14378;51.796;5.808;2023-04-09T11:09:06;20.80;95.30
26803;DHT22;14378;51.796;5.808;2023-04-09T11:11:07;20.70;94.80
26803;DHT22;14378;51.796;5.808;2023-04-09T11:13:17;20.70;94.80
26803;DHT22;14378;51.796;5.808;2023-04-09T11:15:21;20.70;94.70
26803;DHT22;14378;51.796;5.808;2023-04-09T11:17:22;20.70;95.20
26803;DHT22;14378;51.796;5.808;2023-04-09T11:19:23;20.70;94.10
26803;DHT22;14378;51.796;5.808;2023-04-09T11:21:27;20.70;94.70
26803;DHT22;14378;51.796;5.808;2023-04-09T11:23:28;20.80;94.80
26803;DHT22;14378;51.796;5.808;2023-04-09T11:25:30;20.80;93.70
26803;DHT22;14378;51.796;5.808;2023-04-09T11:27:42;21.00;94.40
26803;DHT22;14378;51.796;5.808;2023-04-09T11:29:44;21.10;94.90
26803;DHT22;14378;51.796;5.808;2023-04-09T11:31:48;21.10;93.40
26803;DHT22;14378;51.796;5.808;2023-04-09T11:33:50;21.40;94.40
26803;DHT22;14378;51.796;5.808;2023-04-09T11:35:51;21.50;94.90
26803;DHT22;14378;51.796;5.808;2023-04-09T11:37:52;21.50;94.60
26803;DHT22;14378;51.796;5.808;2023-04-09T11:39:53;21.50;94.10
26803;DHT22;14378;51.796;5.808;2023-04-09T11:41:57;21.60;93.80
26803;DHT22;14378;51.796;5.808;2023-04-09T11:44:01;21.60;94.30
26803;DHT22;14378;51.796;5.808;2023-04-09T11:46:04;21.70;92.10
26803;DHT22;14378;51.796;5.808;2023-04-09T11:48:05;21.80;92.50
26803;DHT22;14378;51.796;5.808;2023-04-09T11:50:07;21.70;92.70
26803;DHT22;14378;51.796;5.808;2023-04-09T11:52:09;21.50;93.10
26803;DHT22;14378;51.796;5.808;2023-04-09T11:54:11;21.40;92.50
26803;DHT22;14378;51.796;5.808;2023-04-09T11:56:12;21.40;93.60
26803;DHT22;14378;51.796;5.808;2023-04-09T11:58:13;21.70;94.10
26803;DHT22;14378;51.796;5.808;2023-04-09T12:00:18;21.90;93.80
26803;DHT22;14378;51.796;5.808;2023-04-09T12:02:23;22.10;92.00
26803;DHT22;14378;51.796;5.808;2023-04-09T12:04:24;22.00;92.10
26803;DHT22;14378;51.796;5.808;2023-04-09T12:06:29;22.00;91.10
26803;DHT22;14378;51.796;5.808;2023-04-09T12:08:33;22.20;91.60
26803;DHT22;14378;51.796;5.808;2023-04-09T12:10:36;22.30;91.00
26803;DHT22;14378;51.796;5.808;2023-04-09T12:12:43;22.60;92.60
26803;DHT22;14378;51.796;5.808;2023-04-09T12:14:45;22.70;91.80
26803;DHT22;14378;51.796;5.808;2023-04-09T12:16:51;22.80;91.80
26803;DHT22;14378;51.796;5.808;2023-04-09T12:18:54;22.80;90.80
26803;DHT22;14378;51.796;5.808;2023-04-09T12:20:57;22.80;90.20
26803;DHT22;14378;51.796;5.808;2023-04-09T12:23:00;23.00;90.80
26803;DHT22;14378;51.796;5.808;2023-04-09T12:25:03;23.10;91.30
26803;DHT22;14378;51.796;5.808;2023-04-09T12:27:04;23.20;89.30
26803;DHT22;14378;51.796;5.808;2023-04-09T12:29:05;23.20;90.20
26803;DHT22;14378;51.796;5.808;2023-04-09T12:31:09;23.10;90.30
26803;DHT22;14378;51.796;5.808;2023-04-09T12:33:10;23.20;90.90
26803;DHT22;14378;51.796;5.808;2023-04-09T12:35:20;23.30;90.00
26803;DHT22;14378;51.796;5.808;2023-04-09T12:37:21;23.40;90.40
26803;DHT22;14378;51.796;5.808;2023-04-09T12:39:22;23.50;88.70
26803;DHT22;14378;51.796;5.808;2023-04-09T12:41:24;23.60;89.90
26803;DHT22;14378;51.796;5.808;2023-04-09T12:43:25;23.80;90.50
26803;DHT22;14378;51.796;5.808;2023-04-09T12:45:26;23.90;90.50
26803;DHT22;14378;51.796;5.808;2023-04-09T12:47:27;23.80;87.90
26803;DHT22;14378;51.796;5.808;2023-04-09T12:49:29;23.70;87.50
26803;DHT22;14378;51.796;5.808;2023-04-09T12:51:30;23.60;89.10
26803;DHT22;14378;51.796;5.808;2023-04-09T12:53:32;23.50;88.30
26803;DHT22;14378;51.796;5.808;2023-04-09T12:55:33;23.50;87.50
26803;DHT22;14378;51.796;5.808;2023-04-09T12:57:36;23.50;90.40
26803;DHT22;14378;51.796;5.808;2023-04-09T12:59:38;23.50;88.90
26803;DHT22;14378;51.796;5.808;2023-04-09T13:01:39;23.60;88.30
26803;DHT22;14378;51.796;5.808;2023-04-09T13:03:40;23.50;88.60
26803;DHT22;14378;51.796;5.808;2023-04-09T13:05:44;23.60;89.50
26803;DHT22;14378;51.796;5.808;2023-04-09T13:07:45;23.60;88.50
26803;DHT22;14378;51.796;5.808;2023-04-09T13:09:51;23.50;89.30
26803;DHT22;14378;51.796;5.808;2023-04-09T13:11:52;23.60;89.30
26803;DHT22;14378;51.796;5.808;2023-04-09T13:13:53;23.60;86.60
26803;DHT22;14378;51.796;5.808;2023-04-09T13:15:54;23.70;85.70
26803;DHT22;14378;51.796;5.808;2023-04-09T13:17:58;23.70;86.70
26803;DHT22;14378;51.796;5.808;2023-04-09T13:20:00;23.90;90.20
26803;DHT22;14378;51.796;5.808;2023-04-09T13:22:01;24.20;90.40
26803;DHT22;14378;51.796;5.808;2023-04-09T13:24:05;24.50;90.30
26803;DHT22;14378;51.796;5.808;2023-04-09T13:26:06;24.70;89.50
26803;DHT22;14378;51.796;5.808;2023-04-09T13:28:07;24.70;85.80
26803;DHT22;14378;51.796;5.808;2023-04-09T13:30:08;24.70;86.90